Time;durP1;ratioP1;P1;durP2;ratioP2;P2;SDS_P1;SDS_P2;PMS_P1;PMS_P2;Temp;Humidity;BMP_temperature;BMP_pressure;BME280_temperature;BME280_humidity;BME280_pressure;Samples;Min_cycle;Max_cycle;Signal;HPM_P1;HPM_P2
2022/05/22 00:01:02;;;;;;;;;9.00;7.50;;;;;;;;5028667;28;45407;-62
2022/05/22 00:03:27;;;;;;;;;9.00;6.75;;;;;;;;5027468;28;46856;-63
2022/05/22 00:05:52;;;;;;;;;9.50;8.25;;;;;;;;5019861;28;45407;-63
2022/05/22 00:08:17;;;;;;;;;8.00;8.00;;;;;;;;5015411;28;45467;-63
2022/05/22 00:10:43;;;;;;;;;5.25;4.75;;;;;;;;5019799;28;45324;-64
2022/05/22 00:13:08;;;;;;;;;3.50;3.50;;;;;;;;5029951;28;45587;-63
2022/05/22 00:15:33;;;;;;;;;6.00;6.00;;;;;;;;5033235;28;45501;-63
2022/05/22 00:17:58;;;;;;;;;5.75;4.25;;;;;;;;5033332;28;45414;-63
2022/05/22 00:20:24;;;;;;;;;4.50;4.25;;;;;;;;5033700;28;45472;-63
2022/05/22 00:22:49;;;;;;;;;4.75;4.25;;;;;;;;5035014;28;46383;-63
2022/05/22 00:25:14;;;;;;;;;5.75;5.50;;;;;;;;5032704;28;45466;-63
2022/05/22 00:27:41;;;;;;;;;6.25;4.00;;;;;;;;5032976;28;45430;-62
2022/05/22 00:30:07;;;;;;;;;8.75;5.25;;;;;;;;5033116;28;45536;-63
2022/05/22 00:32:33;;;;;;;;;5.75;3.75;;;;;;;;5032635;28;45908;-62
2022/05/22 00:34:58;;;;;;;;;5.00;3.75;;;;;;;;5034321;28;45357;-63
2022/05/22 00:37:23;;;;;;;;;3.25;3.25;;;;;;;;5033391;28;45413;-63
2022/05/22 00:39:48;;;;;;;;;3.50;3.50;;;;;;;;5031203;28;45353;-63
2022/05/22 00:42:18;;;;;;;;;5.75;4.50;;;;;;;;5031048;28;45465;-62
2022/05/22 00:44:44;;;;;;;;;5.00;4.00;;;;;;;;5032766;28;45439;-62
2022/05/22 00:47:09;;;;;;;;;5.50;4.25;;;;;;;;5033244;28;45393;-63
2022/05/22 00:49:35;;;;;;;;;4.50;4.50;;;;;;;;5034784;28;45494;-63
2022/05/22 00:52:10;;;;;;;;;6.25;5.00;;;;;;;;5032595;28;45636;-62
2022/05/22 00:54:50;;;;;;;;;4.75;4.50;;;;;;;;5032590;28;45531;-63
2022/05/22 00:57:18;;;;;;;;;4.75;4.75;;;;;;;;5031329;28;45431;-63
2022/05/22 00:59:49;;;;;;;;;5.50;5.50;;;;;;;;5032778;28;45488;-63
2022/05/22 01:02:15;;;;;;;;;6.00;6.00;;;;;;;;5031928;28;46592;-63
2022/05/22 01:04:41;;;;;;;;;5.00;4.75;;;;;;;;5034418;28;45589;-63
2022/05/22 01:07:07;;;;;;;;;5.75;5.75;;;;;;;;5032396;28;45551;-62
2022/05/22 01:09:32;;;;;;;;;4.00;4.00;;;;;;;;5032589;28;45287;-62
2022/05/22 01:12:10;;;;;;;;;9.00;9.00;;;;;;;;5032432;28;45436;-62
2022/05/22 01:14:35;;;;;;;;;5.75;5.75;;;;;;;;5032286;28;45393;-62
2022/05/22 01:17:02;;;;;;;;;6.00;6.00;;;;;;;;5032919;28;45481;-63
2022/05/22 01:19:27;;;;;;;;;7.25;6.00;;;;;;;;5027585;28;45586;-63
2022/05/22 01:21:53;;;;;;;;;7.00;6.25;;;;;;;;5025867;28;47721;-63
2022/05/22 01:24:19;;;;;;;;;12.00;5.75;;;;;;;;5022628;28;45389;-63
2022/05/22 01:26:45;;;;;;;;;9.25;9.25;;;;;;;;5032362;28;45468;-62
2022/05/22 01:29:10;;;;;;;;;10.75;10.75;;;;;;;;5030170;28;45535;-63
2022/05/22 01:31:36;;;;;;;;;10.25;10.25;;;;;;;;5034115;28;45595;-63
2022/05/22 01:34:02;;;;;;;;;10.75;10.00;;;;;;;;5031768;28;45464;-63
2022/05/22 01:36:27;;;;;;;;;10.25;9.75;;;;;;;;5024441;28;45503;-63
2022/05/22 01:38:52;;;;;;;;;11.00;9.25;;;;;;;;5025006;28;45426;-63
2022/05/22 01:41:18;;;;;;;;;11.00;10.50;;;;;;;;5022425;28;46160;-63
2022/05/22 01:43:43;;;;;;;;;11.00;10.00;;;;;;;;5033096;28;45422;-63
2022/05/22 01:46:09;;;;;;;;;10.50;9.75;;;;;;;;5030433;28;45555;-63
2022/05/22 01:48:34;;;;;;;;;9.50;9.50;;;;;;;;5029382;28;45614;-63
2022/05/22 01:50:59;;;;;;;;;6.00;6.00;;;;;;;;5022954;28;46541;-63
2022/05/22 01:53:24;;;;;;;;;9.50;8.25;;;;;;;;5028781;28;45485;-63
2022/05/22 01:55:50;;;;;;;;;6.00;5.50;;;;;;;;5032639;28;45442;-63
2022/05/22 01:58:15;;;;;;;;;7.25;6.75;;;;;;;;5030487;28;45547;-63
2022/05/22 02:00:41;;;;;;;;;5.25;5.25;;;;;;;;5028321;28;45428;-63
2022/05/22 02:03:07;;;;;;;;;5.00;5.00;;;;;;;;5027676;28;45548;-63
2022/05/22 02:05:33;;;;;;;;;8.00;6.50;;;;;;;;5028868;28;45406;-62
2022/05/22 02:10:43;;;;;;;;;8.50;7.25;;;;;;;;5031280;28;45460;-62
2022/05/22 02:13:08;;;;;;;;;5.75;5.00;;;;;;;;5030809;28;45600;-62
2022/05/22 02:15:34;;;;;;;;;6.25;6.00;;;;;;;;5031311;28;45797;-63
2022/05/22 02:17:59;;;;;;;;;7.75;5.75;;;;;;;;5031213;28;45381;-63
2022/05/22 02:20:24;;;;;;;;;8.50;7.75;;;;;;;;5031463;28;46454;-63
2022/05/22 02:22:51;;;;;;;;;4.50;4.00;;;;;;;;5032183;28;45571;-62
2022/05/22 02:25:18;;;;;;;;;7.50;5.75;;;;;;;;5026663;28;45380;-63
2022/05/22 02:27:43;;;;;;;;;5.75;5.75;;;;;;;;5026450;28;45549;-62
2022/05/22 02:30:09;;;;;;;;;8.00;8.00;;;;;;;;5049419;28;47626;-62
2022/05/22 02:32:36;;;;;;;;;7.00;6.25;;;;;;;;5032862;28;46886;-62
2022/05/22 02:35:02;;;;;;;;;7.00;6.75;;;;;;;;5035701;28;45408;-62
2022/05/22 02:37:27;;;;;;;;;6.75;5.50;;;;;;;;5034008;28;46037;-62
2022/05/22 02:39:53;;;;;;;;;7.50;7.00;;;;;;;;5033348;28;46496;-62
2022/05/22 02:42:18;;;;;;;;;6.50;5.50;;;;;;;;5050030;28;45484;-62
2022/05/22 02:44:43;;;;;;;;;7.25;7.25;;;;;;;;5034725;28;45558;-62
2022/05/22 02:47:08;;;;;;;;;9.00;8.75;;;;;;;;5049251;28;45530;-61
2022/05/22 02:49:33;;;;;;;;;8.25;6.50;;;;;;;;5034378;28;46968;-62
2022/05/22 02:52:02;;;;;;;;;8.75;6.75;;;;;;;;5034880;28;45492;-63
2022/05/22 02:54:27;;;;;;;;;8.00;8.00;;;;;;;;5034430;28;45476;-63
2022/05/22 02:56:52;;;;;;;;;7.75;7.75;;;;;;;;5034434;28;45562;-64
2022/05/22 02:59:17;;;;;;;;;8.00;8.00;;;;;;;;5034230;28;46557;-61
2022/05/22 03:01:43;;;;;;;;;9.75;9.75;;;;;;;;5035645;28;45459;-63
2022/05/22 03:04:08;;;;;;;;;9.00;9.00;;;;;;;;5034010;28;45523;-63
2022/05/22 03:06:39;;;;;;;;;11.75;10.00;;;;;;;;5031432;28;45542;-63
2022/05/22 03:09:06;;;;;;;;;12.00;10.50;;;;;;;;5032005;28;46346;-60
2022/05/22 03:11:31;;;;;;;;;11.00;9.50;;;;;;;;5031754;28;45459;-62
2022/05/22 03:13:56;;;;;;;;;12.00;10.50;;;;;;;;5033699;28;45439;-63
2022/05/22 03:16:21;;;;;;;;;14.75;12.25;;;;;;;;5033017;28;45362;-63
2022/05/22 03:18:47;;;;;;;;;12.00;9.00;;;;;;;;5032699;28;45363;-63
2022/05/22 03:21:13;;;;;;;;;14.00;10.00;;;;;;;;5049324;28;45808;-63
2022/05/22 03:23:38;;;;;;;;;10.75;10.75;;;;;;;;5034267;28;45502;-63
2022/05/22 03:26:04;;;;;;;;;8.75;7.75;;;;;;;;5034837;28;45417;-63
2022/05/22 03:28:29;;;;;;;;;7.50;7.50;;;;;;;;5030916;28;47565;-62
2022/05/22 03:30:54;;;;;;;;;9.75;9.00;;;;;;;;5023393;28;45438;-62
2022/05/22 03:33:20;;;;;;;;;8.50;8.50;;;;;;;;5022269;28;45449;-62
2022/05/22 03:35:45;;;;;;;;;7.00;7.00;;;;;;;;5033832;28;45408;-62
2022/05/22 03:38:10;;;;;;;;;8.75;6.25;;;;;;;;5048411;28;47985;-61
2022/05/22 03:40:40;;;;;;;;;10.25;7.00;;;;;;;;5032886;28;45575;-62
2022/05/22 03:43:06;;;;;;;;;8.25;8.25;;;;;;;;5033856;28;45385;-62
2022/05/22 03:45:31;;;;;;;;;8.25;7.25;;;;;;;;5033743;28;45374;-62
2022/05/22 03:47:56;;;;;;;;;5.75;5.75;;;;;;;;5033712;28;46848;-62
2022/05/22 03:50:24;;;;;;;;;4.75;4.75;;;;;;;;5033387;28;45556;-62
2022/05/22 03:52:49;;;;;;;;;7.75;7.50;;;;;;;;5035917;28;45387;-63
2022/05/22 03:55:14;;;;;;;;;9.00;4.75;;;;;;;;5029654;28;45399;-62
2022/05/22 03:57:39;;;;;;;;;8.75;6.50;;;;;;;;5031649;28;47417;-62
2022/05/22 04:00:07;;;;;;;;;6.00;6.00;;;;;;;;5033316;28;45723;-62
2022/05/22 04:02:33;;;;;;;;;6.00;6.00;;;;;;;;5031972;28;45596;-61
2022/05/22 04:04:58;;;;;;;;;8.25;6.50;;;;;;;;5034390;28;45393;-61
2022/05/22 04:07:23;;;;;;;;;8.00;8.00;;;;;;;;5032312;28;48701;-62
2022/05/22 04:09:48;;;;;;;;;5.50;5.50;;;;;;;;5031671;28;45532;-62
2022/05/22 04:12:14;;;;;;;;;11.50;8.50;;;;;;;;5031479;28;45570;-62
2022/05/22 04:14:39;;;;;;;;;7.75;6.75;;;;;;;;5030174;28;45454;-63
2022/05/22 04:17:04;;;;;;;;;8.50;8.50;;;;;;;;5033795;28;45660;-62
2022/05/22 04:19:31;;;;;;;;;7.75;7.50;;;;;;;;5033068;28;45437;-63
2022/05/22 04:21:56;;;;;;;;;8.25;7.00;;;;;;;;5033295;28;45552;-63
2022/05/22 04:27:07;;;;;;;;;7.75;6.50;;;;;;;;5031322;28;45685;-62
2022/05/22 04:29:33;;;;;;;;;8.50;8.50;;;;;;;;5032973;28;45413;-62
2022/05/22 04:31:58;;;;;;;;;8.75;7.25;;;;;;;;5034310;28;45350;-63
2022/05/22 04:34:23;;;;;;;;;9.00;7.25;;;;;;;;5046639;28;45541;-63
2022/05/22 04:36:48;;;;;;;;;7.75;7.75;;;;;;;;5027482;28;46287;-63
2022/05/22 04:39:14;;;;;;;;;8.00;8.00;;;;;;;;5031100;28;45424;-62
2022/05/22 04:41:39;;;;;;;;;8.00;8.00;;;;;;;;5033178;28;45486;-63
2022/05/22 04:44:05;;;;;;;;;5.50;5.50;;;;;;;;5033721;28;45342;-62
2022/05/22 04:46:30;;;;;;;;;9.00;9.00;;;;;;;;5030056;28;45456;-63
2022/05/22 04:48:55;;;;;;;;;6.25;6.25;;;;;;;;5027862;28;45562;-62
2022/05/22 04:51:20;;;;;;;;;7.75;6.50;;;;;;;;5031652;28;45600;-62
2022/05/22 04:53:46;;;;;;;;;9.75;9.75;;;;;;;;5032850;28;45444;-62
2022/05/22 04:56:11;;;;;;;;;9.25;8.50;;;;;;;;5031773;28;45605;-63
2022/05/22 04:58:36;;;;;;;;;8.50;6.75;;;;;;;;5034349;28;45396;-62
2022/05/22 05:01:08;;;;;;;;;8.50;8.50;;;;;;;;5032424;28;45460;-63
2022/05/22 05:03:34;;;;;;;;;7.50;7.50;;;;;;;;5032229;28;45333;-63
2022/05/22 05:05:59;;;;;;;;;10.00;10.00;;;;;;;;5031791;28;47322;-63
2022/05/22 05:08:25;;;;;;;;;9.25;8.75;;;;;;;;5029742;28;45457;-63
2022/05/22 05:10:52;;;;;;;;;8.50;6.50;;;;;;;;5030360;28;45396;-62
2022/05/22 05:13:17;;;;;;;;;5.25;5.25;;;;;;;;5030550;28;45398;-62
2022/05/22 05:15:43;;;;;;;;;9.75;8.75;;;;;;;;5030126;28;46373;-62
2022/05/22 05:18:08;;;;;;;;;9.00;7.00;;;;;;;;5031904;28;45976;-62
2022/05/22 05:20:33;;;;;;;;;9.50;9.50;;;;;;;;5031112;28;45428;-63
2022/05/22 05:23:01;;;;;;;;;7.50;7.50;;;;;;;;5033353;28;46013;-62
2022/05/22 05:25:26;;;;;;;;;9.00;8.00;;;;;;;;5031346;28;48660;-63
2022/05/22 05:27:51;;;;;;;;;10.00;10.00;;;;;;;;5031519;28;45397;-63
2022/05/22 05:30:17;;;;;;;;;10.75;8.75;;;;;;;;5032231;28;45412;-62
2022/05/22 05:32:42;;;;;;;;;9.25;8.75;;;;;;;;5046707;28;45562;-62
2022/05/22 05:35:09;;;;;;;;;7.75;7.75;;;;;;;;5032366;28;45409;-62
2022/05/22 05:37:35;;;;;;;;;6.50;6.50;;;;;;;;5031692;28;45409;-62
2022/05/22 05:40:00;;;;;;;;;9.50;7.25;;;;;;;;5030709;28;45512;-62
2022/05/22 05:42:30;;;;;;;;;8.00;8.00;;;;;;;;5029331;28;45391;-63
2022/05/22 05:44:55;;;;;;;;;7.25;7.25;;;;;;;;5029730;28;45446;-63
2022/05/22 05:47:20;;;;;;;;;9.50;9.50;;;;;;;;5031516;28;45673;-62
2022/05/22 05:49:45;;;;;;;;;9.00;8.00;;;;;;;;5033517;28;45552;-62
2022/05/22 05:52:11;;;;;;;;;8.00;8.00;;;;;;;;5030228;28;45360;-64
2022/05/22 05:54:36;;;;;;;;;10.25;10.00;;;;;;;;5030372;28;45561;-63
2022/05/22 05:57:01;;;;;;;;;9.75;9.75;;;;;;;;5030726;28;45397;-63
2022/05/22 05:59:27;;;;;;;;;8.75;8.75;;;;;;;;5031146;28;45322;-63
2022/05/22 06:01:52;;;;;;;;;10.00;7.75;;;;;;;;5029124;28;45484;-64
2022/05/22 06:04:17;;;;;;;;;9.25;9.25;;;;;;;;5046314;28;47619;-64
2022/05/22 06:06:43;;;;;;;;;8.50;8.50;;;;;;;;5028834;28;45822;-64
2022/05/22 06:09:08;;;;;;;;;9.25;9.25;;;;;;;;5033368;28;45321;-64
2022/05/22 06:11:33;;;;;;;;;9.75;9.75;;;;;;;;5035247;28;45248;-65
2022/05/22 06:13:59;;;;;;;;;11.25;8.25;;;;;;;;5035732;28;45660;-65
2022/05/22 06:16:26;;;;;;;;;12.00;9.50;;;;;;;;5034378;28;46393;-65
2022/05/22 06:18:51;;;;;;;;;9.00;8.00;;;;;;;;5033365;28;45587;-65
2022/05/22 06:21:18;;;;;;;;;11.25;10.50;;;;;;;;5034910;28;45406;-65
2022/05/22 06:23:43;;;;;;;;;8.25;8.25;;;;;;;;5034988;28;45860;-65
2022/05/22 06:26:09;;;;;;;;;8.50;8.50;;;;;;;;5035209;28;45539;-65
2022/05/22 06:28:35;;;;;;;;;10.00;10.00;;;;;;;;5032097;28;45386;-65
2022/05/22 06:31:01;;;;;;;;;8.25;8.00;;;;;;;;5030727;28;45423;-64
2022/05/22 06:33:28;;;;;;;;;10.00;9.00;;;;;;;;5032362;28;46397;-65
2022/05/22 06:35:54;;;;;;;;;10.00;9.00;;;;;;;;5032735;28;45488;-64
2022/05/22 06:41:06;;;;;;;;;8.50;8.50;;;;;;;;5030063;28;45496;-64
2022/05/22 06:43:31;;;;;;;;;6.75;6.75;;;;;;;;5036163;28;47388;-63
2022/05/22 06:45:56;;;;;;;;;8.75;8.00;;;;;;;;5031176;28;45417;-65
2022/05/22 06:48:21;;;;;;;;;11.25;10.00;;;;;;;;5026237;28;45579;-64
2022/05/22 06:50:47;;;;;;;;;11.00;10.00;;;;;;;;5025165;28;45548;-65
2022/05/22 06:53:12;;;;;;;;;11.00;9.50;;;;;;;;5023139;28;46694;-65
2022/05/22 06:55:37;;;;;;;;;11.00;9.50;;;;;;;;5018671;28;45603;-66
2022/05/22 06:58:03;;;;;;;;;9.25;8.00;;;;;;;;5041608;28;47414;-64
2022/05/22 07:00:28;;;;;;;;;5.75;5.75;;;;;;;;5025445;28;45394;-63
2022/05/22 07:02:54;;;;;;;;;10.75;10.00;;;;;;;;5029180;28;45747;-65
2022/05/22 07:05:20;;;;;;;;;9.75;9.50;;;;;;;;5022563;28;45381;-64
2022/05/22 07:07:46;;;;;;;;;7.00;7.00;;;;;;;;5018421;28;45409;-65
2022/05/22 07:10:11;;;;;;;;;8.25;8.25;;;;;;;;5027986;28;45514;-64
2022/05/22 07:12:36;;;;;;;;;9.50;9.00;;;;;;;;5027669;28;47276;-65
2022/05/22 07:15:03;;;;;;;;;8.25;6.00;;;;;;;;5023080;28;45513;-64
2022/05/22 07:17:29;;;;;;;;;8.00;6.00;;;;;;;;5029157;28;45551;-65
2022/05/22 07:19:55;;;;;;;;;6.50;6.50;;;;;;;;5023886;28;45524;-65
2022/05/22 07:22:20;;;;;;;;;5.25;5.25;;;;;;;;5022016;28;48532;-65
2022/05/22 07:24:46;;;;;;;;;7.75;6.50;;;;;;;;5029403;28;45483;-66
2022/05/22 07:27:11;;;;;;;;;6.00;5.50;;;;;;;;5020705;28;45509;-67
2022/05/22 07:29:36;;;;;;;;;9.25;9.25;;;;;;;;5018059;28;45536;-64
2022/05/22 07:32:03;;;;;;;;;9.50;7.25;;;;;;;;5022560;28;45917;-65
2022/05/22 07:34:28;;;;;;;;;7.00;5.00;;;;;;;;5026011;28;45354;-65
2022/05/22 07:36:57;;;;;;;;;7.00;7.00;;;;;;;;5023358;28;45544;-64
2022/05/22 07:39:23;;;;;;;;;5.25;5.25;;;;;;;;5020090;28;45509;-65
2022/05/22 07:41:48;;;;;;;;;8.75;5.00;;;;;;;;5021697;28;45553;-65
2022/05/22 07:44:13;;;;;;;;;9.00;9.00;;;;;;;;5021356;28;45570;-66
2022/05/22 07:46:38;;;;;;;;;6.50;6.50;;;;;;;;5023999;28;45369;-64
2022/05/22 07:49:03;;;;;;;;;6.25;6.00;;;;;;;;5026524;28;45503;-64
2022/05/22 07:51:29;;;;;;;;;5.00;5.00;;;;;;;;5016180;28;46171;-66
2022/05/22 07:53:54;;;;;;;;;4.75;4.75;;;;;;;;5017095;28;45469;-65
2022/05/22 07:56:22;;;;;;;;;4.50;4.50;;;;;;;;5022482;28;45421;-64
2022/05/22 07:58:48;;;;;;;;;5.75;5.75;;;;;;;;5031496;28;45497;-65
2022/05/22 08:01:13;;;;;;;;;8.50;5.75;;;;;;;;5018349;28;45607;-66
2022/05/22 08:03:38;;;;;;;;;6.00;5.00;;;;;;;;5017316;28;47505;-64
2022/05/22 08:06:03;;;;;;;;;5.00;5.00;;;;;;;;5027934;28;45408;-65
2022/05/22 08:08:29;;;;;;;;;4.00;4.00;;;;;;;;5030415;28;45522;-64
2022/05/22 08:10:56;;;;;;;;;5.00;5.00;;;;;;;;5021566;28;47756;-66
2022/05/22 08:13:21;;;;;;;;;8.00;5.50;;;;;;;;5028792;28;45516;-65
2022/05/22 08:15:47;;;;;;;;;6.50;5.00;;;;;;;;5029142;28;45566;-65
2022/05/22 08:18:12;;;;;;;;;5.25;5.25;;;;;;;;5020631;28;45815;-65
2022/05/22 08:20:39;;;;;;;;;4.00;4.00;;;;;;;;5026572;28;45810;-66
2022/05/22 08:23:05;;;;;;;;;7.00;7.00;;;;;;;;5016163;28;45370;-64
2022/05/22 08:25:31;;;;;;;;;5.00;5.00;;;;;;;;5025700;28;45547;-64
2022/05/22 08:27:56;;;;;;;;;6.25;4.75;;;;;;;;5025546;28;45357;-64
2022/05/22 08:30:23;;;;;;;;;4.25;4.25;;;;;;;;5026435;28;45657;-64
2022/05/22 08:32:49;;;;;;;;;6.25;5.00;;;;;;;;5030953;28;46227;-65
2022/05/22 08:35:17;;;;;;;;;5.75;4.25;;;;;;;;5021977;28;45519;-65
2022/05/22 08:37:42;;;;;;;;;6.00;5.00;;;;;;;;5016318;28;45335;-65
2022/05/22 08:40:09;;;;;;;;;4.25;4.25;;;;;;;;5026609;28;45386;-65
2022/05/22 08:42:48;;;;;;;;;5.75;5.25;;;;;;;;5039383;28;45409;-65
2022/05/22 08:45:24;;;;;;;;;5.00;3.75;;;;;;;;5025516;28;45589;-66
2022/05/22 08:47:58;;;;;;;;;3.25;3.25;;;;;;;;5024606;28;45420;-65
2022/05/22 08:50:23;;;;;;;;;3.00;3.00;;;;;;;;5022830;28;47650;-65
2022/05/22 08:52:55;;;;;;;;;4.75;4.75;;;;;;;;5026247;28;45473;-65
2022/05/22 08:58:55;;;;;;;;;5.50;5.25;;;;;;;;5027327;28;45575;-65
2022/05/22 09:01:02;;;;;;;;;2.33;2.33;;;;;;;;5028086;28;45467;-65
2022/05/22 09:03:31;;;;;;;;;4.00;4.00;;;;;;;;5035162;28;45395;-65
2022/05/22 09:05:59;;;;;;;;;4.25;4.00;;;;;;;;5019174;28;45513;-65
2022/05/22 09:08:41;;;;;;;;;4.75;4.00;;;;;;;;5034640;28;45420;-65
2022/05/22 09:11:14;;;;;;;;;3.67;2.33;;;;;;;;5028125;28;45756;-65
2022/05/22 09:13:58;;;;;;;;;3.00;3.00;;;;;;;;5017013;28;45582;-65
2022/05/22 09:16:33;;;;;;;;;4.00;4.00;;;;;;;;5035450;28;45518;-65
2022/05/22 09:19:09;;;;;;;;;1.50;1.50;;;;;;;;5029740;28;45402;-65
2022/05/22 09:21:43;;;;;;;;;2.25;2.25;;;;;;;;5027126;28;48575;-65
2022/05/22 09:24:23;;;;;;;;;3.25;3.25;;;;;;;;5030744;28;45829;-65
2022/05/22 09:26:48;;;;;;;;;5.00;4.00;;;;;;;;5063761;27;45511;-64
2022/05/22 09:29:26;;;;;;;;;5.00;3.00;;;;;;;;5032734;28;45508;-64
2022/05/22 09:31:52;;;;;;;;;5.00;4.00;;;;;;;;5036439;28;47779;-64
2022/05/22 09:34:17;;;;;;;;;2.25;2.25;;;;;;;;5035401;28;45476;-66
2022/05/22 09:37:07;;;;;;;;;3.25;2.00;;;;;;;;5042560;28;45636;-66
2022/05/22 09:39:44;;;;;;;;;3.50;3.00;;;;;;;;5043541;28;45417;-65
2022/05/22 09:42:13;;;;;;;;;2.75;2.75;;;;;;;;5024003;28;46009;-65
2022/05/22 09:44:38;;;;;;;;;4.75;3.00;;;;;;;;5028713;28;45480;-65
2022/05/22 09:47:15;;;;;;;;;3.00;2.00;;;;;;;;5026518;28;45626;-65
2022/05/22 09:49:58;;;;;;;;;2.25;2.25;;;;;;;;5025876;28;46033;-65
2022/05/22 09:52:30;;;;;;;;;2.00;2.00;;;;;;;;5029850;28;45402;-64
2022/05/22 09:54:58;;;;;;;;;3.00;3.00;;;;;;;;5022924;28;45635;-64
2022/05/22 09:57:26;;;;;;;;;1.00;1.00;;;;;;;;5044659;28;45522;-64
2022/05/22 10:00:10;;;;;;;;;3.00;2.00;;;;;;;;5023381;28;45469;-63
2022/05/22 10:02:35;;;;;;;;;3.00;3.00;;;;;;;;5038363;28;46713;-63
2022/05/22 10:05:00;;;;;;;;;4.75;2.50;;;;;;;;5029210;28;45552;-64
2022/05/22 10:07:33;;;;;;;;;2.25;2.25;;;;;;;;5035820;28;45531;-65
2022/05/22 10:10:22;;;;;;;;;2.00;2.00;;;;;;;;5032846;28;45581;-65
2022/05/22 10:13:03;;;;;;;;;3.00;2.00;;;;;;;;5004995;28;47614;-64
2022/05/22 10:16:07;;;;;;;;;7.00;6.50;;;;;;;;5009986;28;45902;-65
2022/05/22 10:18:50;;;;;;;;;11.50;8.25;;;;;;;;4947562;28;45604;-64
2022/05/22 10:21:18;;;;;;;;;4.25;4.25;;;;;;;;4937564;28;45565;-64
2022/05/22 10:23:43;;;;;;;;;11.50;10.50;;;;;;;;4923502;28;47723;-64
2022/05/22 10:26:27;;;;;;;;;2.50;2.50;;;;;;;;4933967;28;45638;-64
2022/05/22 10:28:56;;;;;;;;;4.50;4.50;;;;;;;;4949440;28;45436;-64
2022/05/22 10:31:24;;;;;;;;;6.75;6.75;;;;;;;;4934993;28;45345;-64
2022/05/22 10:33:52;;;;;;;;;6.00;6.00;;;;;;;;4950779;28;45767;-63
2022/05/22 10:36:40;;;;;;;;;13.00;10.00;;;;;;;;4951319;28;45557;-64
2022/05/22 10:39:07;;;;;;;;;4.00;4.00;;;;;;;;4934091;28;45439;-64
2022/05/22 10:44:19;;;;;;;;;4.00;4.00;;;;;;;;4949832;28;45602;-63
2022/05/22 10:46:51;;;;;;;;;4.50;4.50;;;;;;;;4950918;28;45437;-64
2022/05/22 10:49:18;;;;;;;;;4.00;4.00;;;;;;;;4983966;28;45653;-64
2022/05/22 10:51:54;;;;;;;;;4.00;3.50;;;;;;;;5032207;28;45705;-64
2022/05/22 10:54:25;;;;;;;;;3.00;3.00;;;;;;;;5031215;28;45875;-64
2022/05/22 10:56:50;;;;;;;;;5.75;5.75;;;;;;;;5038860;28;45400;-63
2022/05/22 10:59:20;;;;;;;;;6.00;5.00;;;;;;;;5037274;28;45488;-64
2022/05/22 11:01:56;;;;;;;;;6.00;6.00;;;;;;;;5043677;28;45473;-62
2022/05/22 11:04:22;;;;;;;;;9.00;7.25;;;;;;;;5033073;28;45365;-63
2022/05/22 11:06:55;;;;;;;;;20.50;20.50;;;;;;;;5033679;28;45414;-63
2022/05/22 11:09:29;;;;;;;;;8.25;7.75;;;;;;;;5041613;28;45606;-63
2022/05/22 11:12:04;;;;;;;;;6.25;6.25;;;;;;;;5030308;28;45457;-64
2022/05/22 11:14:32;;;;;;;;;13.00;11.00;;;;;;;;5042249;28;46494;-63
2022/05/22 11:17:06;;;;;;;;;8.50;6.00;;;;;;;;5038673;28;45430;-63
2022/05/22 11:19:32;;;;;;;;;5.25;5.25;;;;;;;;5039969;28;45393;-64
2022/05/22 11:22:00;;;;;;;;;41.50;36.50;;;;;;;;5037646;28;45552;-64
2022/05/22 11:24:47;;;;;;;;;6.75;6.75;;;;;;;;5033606;28;46456;-64
2022/05/22 11:27:26;;;;;;;;;43.00;36.50;;;;;;;;5022635;28;45388;-64
2022/05/22 11:29:54;;;;;;;;;43.25;35.50;;;;;;;;5032695;28;45447;-64
2022/05/22 11:32:22;;;;;;;;;9.75;9.75;;;;;;;;5043323;28;45440;-65
2022/05/22 11:34:59;;;;;;;;;12.25;12.25;;;;;;;;5034947;28;46445;-64
2022/05/22 11:37:37;;;;;;;;;10.00;9.25;;;;;;;;5035416;28;45389;-64
2022/05/22 11:40:14;;;;;;;;;14.75;13.00;;;;;;;;5035809;28;45470;-65
2022/05/22 11:42:40;;;;;;;;;30.75;29.25;;;;;;;;5026078;28;45602;-65
2022/05/22 11:45:18;;;;;;;;;7.75;7.75;;;;;;;;5041383;28;47515;-64
2022/05/22 11:47:44;;;;;;;;;6.00;6.00;;;;;;;;5033402;28;45392;-65
2022/05/22 11:50:28;;;;;;;;;12.25;11.50;;;;;;;;5044351;28;45450;-64
2022/05/22 11:53:12;;;;;;;;;6.75;6.75;;;;;;;;5038204;28;45463;-64
2022/05/22 11:55:40;;;;;;;;;5.00;5.00;;;;;;;;5057396;28;48799;-65
2022/05/22 11:58:05;;;;;;;;;9.25;9.25;;;;;;;;5031910;28;45436;-65
2022/05/22 12:00:36;;;;;;;;;8.75;7.25;;;;;;;;5032152;28;45449;-62
2022/05/22 12:03:06;;;;;;;;;7.25;5.50;;;;;;;;5031213;28;45608;-65
2022/05/22 12:05:31;;;;;;;;;5.00;5.00;;;;;;;;5029501;28;47646;-64
2022/05/22 12:08:09;;;;;;;;;6.00;5.00;;;;;;;;5026162;28;45428;-64
2022/05/22 12:10:53;;;;;;;;;2.75;2.75;;;;;;;;5033541;28;45388;-66
2022/05/22 12:13:27;;;;;;;;;3.50;3.50;;;;;;;;5031620;28;45319;-64
2022/05/22 12:15:55;;;;;;;;;6.00;4.00;;;;;;;;5034025;28;47328;-64
2022/05/22 12:18:26;;;;;;;;;4.50;4.25;;;;;;;;5026567;28;45539;-66
2022/05/22 12:20:58;;;;;;;;;8.25;7.25;;;;;;;;5038602;28;45421;-66
2022/05/22 12:23:42;;;;;;;;;12.00;10.25;;;;;;;;5032033;28;45370;-68
2022/05/22 12:26:08;;;;;;;;;10.25;8.50;;;;;;;;5057663;28;48987;-68
2022/05/22 12:28:39;;;;;;;;;5.75;5.75;;;;;;;;5021701;28;45397;-68
2022/05/22 12:31:07;;;;;;;;;5.50;5.50;;;;;;;;5021501;28;45533;-67
2022/05/22 12:33:34;;;;;;;;;7.00;6.00;;;;;;;;5029541;28;45552;-67
2022/05/22 12:35:59;;;;;;;;;6.00;6.00;;;;;;;;5025465;28;46392;-67
2022/05/22 12:38:25;;;;;;;;;4.25;3.50;;;;;;;;5032485;28;45822;-67
2022/05/22 12:40:53;;;;;;;;;3.75;2.75;;;;;;;;5022897;28;45429;-67
2022/05/22 12:43:19;;;;;;;;;4.50;4.25;;;;;;;;5028631;28;45638;-66
2022/05/22 12:46:05;;;;;;;;;3.25;3.25;;;;;;;;5028829;28;46637;-67
2022/05/22 12:48:33;;;;;;;;;4.50;4.50;;;;;;;;5026034;28;45686;-68
2022/05/22 12:51:10;;;;;;;;;3.00;3.00;;;;;;;;5037932;28;45347;-67
2022/05/22 12:53:40;;;;;;;;;4.00;3.25;;;;;;;;5023429;28;45492;-67
2022/05/22 12:56:17;;;;;;;;;5.00;4.75;;;;;;;;5038841;28;46853;-67
2022/05/22 12:58:52;;;;;;;;;3.50;3.50;;;;;;;;5047923;28;45416;-67
2022/05/22 13:01:26;;;;;;;;;4.67;3.00;;;;;;;;5048460;28;45933;-67
2022/05/22 13:03:52;;;;;;;;;4.00;4.00;;;;;;;;5025804;28;45449;-66
2022/05/22 13:06:20;;;;;;;;;4.00;4.00;;;;;;;;5020849;28;45467;-64
2022/05/22 13:08:57;;;;;;;;;7.00;6.00;;;;;;;;5025916;28;45417;-64
2022/05/22 13:11:28;;;;;;;;;6.50;6.50;;;;;;;;5025110;28;45741;-65
2022/05/22 13:13:53;;;;;;;;;8.50;7.50;;;;;;;;5038072;28;45588;-67
2022/05/22 13:16:26;;;;;;;;;6.75;6.75;;;;;;;;5032093;28;46882;-65
2022/05/22 13:18:52;;;;;;;;;12.50;12.00;;;;;;;;5031517;28;45523;-66
2022/05/22 13:21:28;;;;;;;;;14.25;13.50;;;;;;;;5039652;28;45361;-65
2022/05/22 13:24:01;;;;;;;;;12.50;11.00;;;;;;;;5031488;28;45519;-64
2022/05/22 13:26:27;;;;;;;;;3.00;3.00;;;;;;;;5023288;28;46705;-63
2022/05/22 13:28:57;;;;;;;;;5.50;4.50;;;;;;;;5028348;28;45421;-65
2022/05/22 13:31:41;;;;;;;;;14.50;12.25;;;;;;;;5025318;28;45527;-64
2022/05/22 13:34:07;;;;;;;;;25.50;24.50;;;;;;;;5022923;28;45473;-64
2022/05/22 13:36:33;;;;;;;;;6.25;5.00;;;;;;;;5026747;28;46306;-65
2022/05/22 13:39:01;;;;;;;;;7.00;5.75;;;;;;;;5040453;28;45469;-65
2022/05/22 13:41:26;;;;;;;;;4.00;4.00;;;;;;;;5021144;28;45445;-63
2022/05/22 13:44:07;;;;;;;;;4.75;4.75;;;;;;;;5026964;28;45822;-65
2022/05/22 13:46:38;;;;;;;;;5.50;4.75;;;;;;;;5024712;28;45957;-65
2022/05/22 13:49:12;;;;;;;;;3.25;3.25;;;;;;;;5025502;28;45357;-64
2022/05/22 13:54:37;;;;;;;;;4.25;4.25;;;;;;;;5029415;28;45353;-65
2022/05/22 13:57:11;;;;;;;;;4.00;4.00;;;;;;;;5030312;28;50143;-67
2022/05/22 13:59:39;;;;;;;;;4.00;4.00;;;;;;;;5026813;28;45468;-66
2022/05/22 14:02:07;;;;;;;;;4.25;4.25;;;;;;;;5025347;28;45706;-67
2022/05/22 14:04:35;;;;;;;;;4.25;4.25;;;;;;;;5031821;28;45422;-65
2022/05/22 14:07:05;;;;;;;;;4.50;4.50;;;;;;;;5032098;28;46200;-64
2022/05/22 14:09:34;;;;;;;;;4.00;4.00;;;;;;;;5038665;28;45520;-66
2022/05/22 14:11:59;;;;;;;;;3.00;3.00;;;;;;;;5028631;28;45447;-66
2022/05/22 14:14:26;;;;;;;;;4.75;4.75;;;;;;;;5039788;28;45784;-66
2022/05/22 14:16:57;;;;;;;;;3.00;3.00;;;;;;;;5033922;28;46575;-66
2022/05/22 14:19:29;;;;;;;;;5.00;3.75;;;;;;;;5026967;28;45489;-69
2022/05/22 14:21:55;;;;;;;;;3.50;2.50;;;;;;;;5034651;28;45507;-66
2022/05/22 14:27:15;;;;;;;;;3.75;3.75;;;;;;;;5044391;28;45514;-66
2022/05/22 14:29:41;;;;;;;;;4.00;4.00;;;;;;;;5031635;28;45513;-67
2022/05/22 14:32:13;;;;;;;;;6.00;5.00;;;;;;;;5038266;28;45346;-66
2022/05/22 14:34:40;;;;;;;;;3.00;3.00;;;;;;;;5036826;28;45429;-66
2022/05/22 14:37:05;;;;;;;;;2.00;2.00;;;;;;;;5046093;28;47863;-65
2022/05/22 14:39:30;;;;;;;;;2.00;2.00;;;;;;;;5041741;28;48059;-67
2022/05/22 14:41:59;;;;;;;;;4.00;2.00;;;;;;;;5033657;28;46587;-65
2022/05/22 14:44:31;;;;;;;;;2.50;2.50;;;;;;;;5029179;28;45436;-66
2022/05/22 14:46:58;;;;;;;;;2.00;2.00;;;;;;;;5038409;28;47691;-66
2022/05/22 14:49:28;;;;;;;;;3.00;2.00;;;;;;;;5031082;28;45547;-66
2022/05/22 14:51:56;;;;;;;;;3.00;3.00;;;;;;;;5032441;28;45324;-65
2022/05/22 14:54:21;;;;;;;;;1.75;1.75;;;;;;;;5034167;28;45390;-68
2022/05/22 14:57:13;;;;;;;;;3.25;2.25;;;;;;;;5041077;28;47742;-67
2022/05/22 14:59:40;;;;;;;;;2.25;2.25;;;;;;;;5032243;28;45470;-67
2022/05/22 15:02:12;;;;;;;;;2.25;2.25;;;;;;;;5039248;28;45348;-67
2022/05/22 15:04:38;;;;;;;;;4.00;3.00;;;;;;;;5027443;28;45357;-67
2022/05/22 15:07:05;;;;;;;;;2.00;2.00;;;;;;;;5028569;28;45640;-66